Chauvin, LA (70344)

7:25 AM CST on February 08, 2016 (GMT -0600)
Green Acres | | Change Station
CLOSE
Current Station
Personal Weather Station
Location: Bourg, LA
Elevation: 16 ft
Nearby Weather Stations
Active Advisory: Wind Advisory

Elev 16 ft 29.56 °N, 90.64 °W | Updated 8 seconds ago

Clear
Clear
47.7 °F
Feels Like 46 °F
N
3.7
Wind Variable Wind from WNW
Gusts 3.7 mph

Today
High -- | Low -- °F
--% Chance of Precip.
Yesterday
High -- | Low -- °F
Precip. -- in
Pressure 30.13 in
Visibility 7.0 miles
Clouds Clear
Windchill 46 °F
Dew Point 46 °F
Humidity 93%
Rainfall 0.00 in
Snow Depth Not available.
6:47 AM 5:45 PM
Waning Crescent, 0% visible
METAR KHUM 081247Z 25004KT 7SM SKC 08/07 A3013 RMK ATIS U.....RY18....RJ
Pressure 30.13 in
Visibility 7.0 miles
Clouds Clear
Windchill 46 °F
Dew Point 46 °F
Humidity 93%
Rainfall 0.00 in
Snow Depth Not available.
6:47 AM 5:45 PM
Waning Crescent, 0% visible
METAR KHUM 081247Z 25004KT 7SM SKC 08/07 A3013 RMK ATIS U.....RY18....RJ

10-Day Weather Forecast

Almanac

Astronomy

Feb. 08, 2016 Rise Set
Actual Time
Civil Twilight
Nautical Twilight
Astronomical Twilight
Moon
Length of Visible Light
Length of Day
Tomorrow will be .
, % of the Moon is Illuminated

Today's Extremes

State Highs State Lows

Community

WunderPhotos

Upload Photos

1,891,434 photos uploaded!

WunderBlog® & News

Nearby

Air Quality

  Air Quality AQ Index Pollutant
Not available.

Snow Depth

Station Depth Elevation

Earthquake Activity

City Distance Mag. Time & Date
Minimum magnitude displayed is 2.5.

Coastal Water Temperatures

Place Temperature

Stations

Nearby Weather Stations

Station Location Temp. Windchill Dew Point Humidity Wind Precip. Elev Updated Type
                   

Watches & Warnings

Wind Advisory
Issued: 3:32 AM CST Feb. 8, 2016 – National Weather Service

... Wind Advisory in effect from 9 am this morning to 6 PM CST
this evening...

The National Weather Service in New Orleans has issued a Wind
Advisory... which is in effect from 9 am this morning to 6 PM CST
this evening.

* Winds... near 20 mph with frequent gusts of 30 to 40 mph.

* Duration... 6 to 10 hours.

* Impacts... windy conditions will lead to difficult driving
conditions especially along elevated roadways along with
east/west highways and interstates.

Precautionary/preparedness actions...

A Wind Advisory means that winds of 26 to 39 mph are expected.
Winds this strong can make driving difficult... especially for
high profile vehicles. Use extra caution.